createdAt,value
2018-09-09T00:00:26.103Z,12.38
2018-09-09T00:01:26.137Z,12.35
2018-09-09T00:02:26.178Z,12.31
2018-09-09T00:03:26.227Z,12.32
2018-09-09T00:04:26.259Z,12.29
2018-09-09T00:05:26.399Z,12.31
2018-09-09T00:06:26.336Z,12.27
2018-09-09T00:07:26.377Z,12.28
2018-09-09T00:08:26.418Z,12.28
2018-09-09T00:09:26.465Z,12.31
2018-09-09T00:10:26.495Z,12.35
2018-09-09T00:11:26.536Z,12.38
2018-09-09T00:12:26.580Z,12.31
2018-09-09T00:13:26.624Z,12.31
2018-09-09T00:14:26.664Z,12.28
2018-09-09T00:15:26.692Z,12.38
2018-09-09T00:16:26.739Z,12.37
2018-09-09T00:17:26.789Z,12.31
2018-09-09T00:18:26.818Z,12.31
2018-09-09T00:19:26.854Z,12.32
2018-09-09T00:20:26.898Z,12.24
2018-09-09T00:21:26.931Z,12.24
2018-09-09T00:22:26.972Z,12.28
2018-09-09T00:23:27.012Z,12.16
2018-09-09T00:24:27.052Z,12.16
2018-09-09T00:25:27.089Z,12.14
2018-09-09T00:26:27.141Z,12.07
2018-09-09T00:27:27.180Z,11.99
2018-09-09T00:28:27.212Z,11.88
2018-09-09T00:29:27.246Z,11.91
2018-09-09T00:30:27.289Z,11.95
2018-09-09T00:31:27.333Z,11.86
2018-09-09T00:32:27.367Z,11.85
2018-09-09T00:33:27.505Z,11.83
2018-09-09T00:34:27.448Z,11.76
2018-09-09T00:35:27.494Z,11.83
2018-09-09T00:36:27.533Z,11.85
2018-09-09T00:37:27.564Z,11.83
2018-09-09T00:38:27.612Z,11.86
2018-09-09T00:39:27.646Z,11.86
2018-09-09T00:40:27.683Z,11.75
2018-09-09T00:41:27.726Z,11.79
2018-09-09T00:42:27.763Z,11.80
2018-09-09T00:43:27.802Z,11.78
2018-09-09T00:44:27.844Z,11.72
2018-09-09T00:45:27.893Z,11.83
2018-09-09T00:46:27.920Z,11.91
2018-09-09T00:47:27.961Z,11.94
2018-09-09T00:48:28.001Z,11.88
2018-09-09T00:49:28.038Z,11.88
2018-09-09T00:50:28.094Z,11.94
2018-09-09T00:51:28.130Z,11.98
2018-09-09T00:52:28.157Z,11.91
2018-09-09T00:53:28.214Z,11.98
2018-09-09T00:54:28.239Z,12.12
2018-09-09T00:55:28.287Z,11.95
2018-09-09T00:56:28.327Z,11.94
2018-09-09T00:57:28.351Z,11.98
2018-09-09T00:58:28.402Z,12.05
2018-09-09T00:59:28.434Z,11.90
2018-09-09T01:00:28.475Z,11.95
2018-09-09T01:01:28.534Z,11.99
2018-09-09T01:02:28.550Z,12.05
2018-09-09T01:03:28.591Z,12.07
2018-09-09T01:04:28.633Z,12.05
2018-09-09T01:05:28.667Z,12.10
2018-09-09T01:06:28.709Z,12.12
2018-09-09T01:07:28.754Z,11.99
2018-09-09T01:08:28.787Z,12.04
2018-09-09T01:09:28.826Z,12.07
2018-09-09T01:10:28.876Z,12.04
2018-09-09T01:11:28.916Z,12.12
2018-09-09T01:12:28.944Z,12.12
2018-09-09T01:13:28.987Z,12.13
2018-09-09T01:14:29.023Z,12.14
2018-09-09T01:15:29.062Z,12.09
2018-09-09T01:16:29.102Z,12.10
2018-09-09T01:17:29.141Z,12.13
2018-09-09T01:18:29.185Z,12.09
2018-09-09T01:19:29.218Z,12.16
2018-09-09T01:20:29.259Z,12.12
2018-09-09T01:21:29.300Z,12.17
2018-09-09T01:22:29.339Z,12.20
2018-09-09T01:23:29.377Z,12.13
2018-09-09T01:24:29.417Z,12.17
2018-09-09T01:25:29.455Z,12.14
2018-09-09T01:26:29.503Z,12.13
2018-09-09T01:27:29.535Z,12.19
2018-09-09T01:28:29.575Z,12.13
2018-09-09T01:29:29.614Z,12.12
2018-09-09T01:30:29.653Z,12.13
2018-09-09T01:31:29.694Z,12.14
2018-09-09T01:32:29.733Z,12.20
2018-09-09T01:33:29.770Z,12.17
2018-09-09T01:34:29.813Z,12.21
2018-09-09T01:35:29.851Z,12.29
2018-09-09T01:36:29.891Z,12.24
2018-09-09T01:37:29.930Z,12.32
2018-09-09T01:38:29.971Z,12.31
2018-09-09T01:39:30.009Z,12.31
2018-09-09T01:40:30.050Z,12.31
2018-09-09T01:41:30.098Z,12.27
2018-09-09T01:42:30.127Z,12.32
2018-09-09T01:43:30.169Z,12.35
2018-09-09T01:44:30.208Z,12.34
2018-09-09T01:45:30.246Z,12.38
2018-09-09T01:46:30.286Z,12.35
2018-09-09T01:47:30.325Z,12.37
2018-09-09T01:48:30.367Z,12.41
2018-09-09T01:49:30.410Z,12.39
2018-09-09T01:50:30.447Z,12.45
2018-09-09T01:51:30.484Z,12.35
2018-09-09T01:52:30.523Z,12.31
2018-09-09T01:53:30.561Z,12.31
2018-09-09T01:54:30.602Z,12.32
2018-09-09T01:55:30.640Z,12.31
2018-09-09T01:56:30.681Z,12.31
2018-09-09T01:57:30.719Z,12.28
2018-09-09T01:58:30.805Z,12.29
2018-09-09T01:59:30.801Z,12.29
2018-09-09T02:00:30.840Z,12.29
2018-09-09T02:01:30.881Z,12.34
2018-09-09T02:02:30.918Z,12.29
2018-09-09T02:03:30.964Z,12.29
2018-09-09T02:04:30.999Z,12.31
2018-09-09T02:05:31.036Z,12.29
2018-09-09T02:06:31.076Z,12.29
2018-09-09T02:07:31.121Z,12.28
2018-09-09T02:08:31.156Z,12.32
2018-09-09T02:09:31.210Z,12.32
2018-09-09T02:10:31.234Z,12.28
2018-09-09T02:11:31.276Z,12.24
2018-09-09T02:12:31.318Z,12.28
2018-09-09T02:13:31.355Z,12.31
2018-09-09T02:14:31.393Z,12.24
2018-09-09T02:15:31.431Z,12.28
2018-09-09T02:16:31.480Z,12.16
2018-09-09T02:17:31.515Z,12.14
2018-09-09T02:18:31.550Z,12.14
2018-09-09T02:19:31.590Z,12.17
2018-09-09T02:20:31.629Z,12.14
2018-09-09T02:21:31.666Z,12.13
2018-09-09T02:22:31.708Z,12.05
2018-09-09T02:23:31.747Z,12.09
2018-09-09T02:24:31.788Z,12.04
2018-09-09T02:25:31.826Z,12.04
2018-09-09T02:26:31.864Z,12.01
2018-09-09T02:27:31.908Z,12.12
2018-09-09T02:28:31.946Z,12.09
2018-09-09T02:29:31.993Z,12.07
2018-09-09T02:30:32.038Z,12.07
2018-09-09T02:31:32.064Z,12.10
2018-09-09T02:32:32.154Z,12.09
2018-09-09T02:33:32.142Z,12.04
2018-09-09T02:34:32.181Z,12.02
2018-09-09T02:35:32.222Z,12.12
2018-09-09T02:36:32.260Z,12.05
2018-09-09T02:37:32.299Z,11.96
2018-09-09T02:38:32.338Z,11.94
2018-09-09T02:39:32.380Z,11.88
2018-09-09T02:40:32.420Z,11.83
2018-09-09T02:41:32.457Z,11.83
2018-09-09T02:42:32.497Z,11.79
2018-09-09T02:43:32.577Z,11.78
2018-09-09T02:44:32.576Z,11.79
2018-09-09T02:45:32.618Z,11.70
2018-09-09T02:46:32.658Z,11.65
2018-09-09T02:47:32.695Z,11.64
2018-09-09T02:48:32.733Z,11.64
2018-09-09T02:49:32.772Z,11.57
2018-09-09T02:50:32.812Z,11.51
2018-09-09T02:51:32.852Z,11.49
2018-09-09T02:52:32.891Z,11.47
2018-09-09T02:53:32.928Z,11.37
2018-09-09T02:54:32.972Z,11.35
2018-09-09T02:55:33.013Z,11.33
2018-09-09T02:56:33.049Z,11.29
2018-09-09T02:57:33.085Z,11.22
2018-09-09T02:58:33.125Z,11.19
2018-09-09T02:59:33.163Z,11.19
2018-09-09T03:00:33.207Z,11.22
2018-09-09T03:01:33.242Z,11.19
2018-09-09T03:02:33.288Z,11.22
2018-09-09T03:03:33.323Z,11.21
2018-09-09T03:04:33.368Z,11.18
2018-09-09T03:05:33.400Z,11.10
2018-09-09T03:06:33.437Z,11.14
2018-09-09T03:07:33.478Z,11.18
2018-09-09T03:08:33.517Z,11.11
2018-09-09T03:09:33.561Z,11.17
2018-09-09T03:10:33.596Z,11.09
2018-09-09T03:11:33.634Z,11.14
2018-09-09T03:12:33.676Z,11.11
2018-09-09T03:13:33.712Z,11.22
2018-09-09T03:14:33.753Z,11.19
2018-09-09T03:15:33.791Z,11.33
2018-09-09T03:16:33.831Z,11.37
2018-09-09T03:17:33.868Z,11.32
2018-09-09T03:18:33.908Z,11.36
2018-09-09T03:19:33.948Z,11.33
2018-09-09T03:20:33.986Z,11.46
2018-09-09T03:21:34.031Z,11.51
2018-09-09T03:22:34.065Z,11.47
2018-09-09T03:23:34.103Z,11.49
2018-09-09T03:24:34.143Z,11.55
2018-09-09T03:25:34.181Z,11.51
2018-09-09T03:26:34.221Z,11.57
2018-09-09T03:27:34.261Z,11.62
2018-09-09T03:28:34.320Z,11.54
2018-09-09T03:29:34.337Z,11.52
2018-09-09T03:30:34.385Z,11.62
2018-09-09T03:31:34.417Z,11.62
2018-09-09T03:32:34.455Z,11.65
2018-09-09T03:33:34.494Z,11.62
2018-09-09T03:34:34.534Z,11.65
2018-09-09T03:35:34.572Z,11.61
2018-09-09T03:36:34.612Z,11.72
2018-09-09T03:37:34.653Z,11.62
2018-09-09T03:38:34.692Z,11.64
2018-09-09T03:39:34.729Z,11.61
2018-09-09T03:40:34.771Z,11.62
2018-09-09T03:41:34.807Z,11.67
2018-09-09T03:42:34.847Z,11.58
2018-09-09T03:43:34.885Z,11.60
2018-09-09T03:44:34.925Z,11.61
2018-09-09T03:45:34.964Z,11.54
2018-09-09T03:46:35.003Z,11.58
2018-09-09T03:47:35.042Z,11.60
2018-09-09T03:48:35.091Z,11.47
2018-09-09T03:49:35.119Z,11.49
2018-09-09T03:50:35.163Z,11.57
2018-09-09T03:51:35.198Z,11.54
2018-09-09T03:52:35.237Z,11.57
2018-09-09T03:53:35.277Z,11.55
2018-09-09T03:54:35.315Z,11.58
2018-09-09T03:55:35.353Z,11.58
2018-09-09T03:56:35.393Z,11.58
2018-09-09T03:57:35.432Z,11.62
2018-09-09T03:58:35.470Z,11.52
2018-09-09T03:59:35.510Z,11.57
2018-09-09T04:00:35.550Z,11.49
2018-09-09T04:01:35.587Z,11.46
2018-09-09T04:02:35.627Z,11.49
2018-09-09T04:03:35.667Z,11.54
2018-09-09T04:04:35.707Z,11.52
2018-09-09T04:05:35.744Z,11.54
2018-09-09T04:06:35.788Z,11.58
2018-09-09T04:07:35.824Z,11.54
2018-09-09T04:08:35.910Z,11.52
2018-09-09T04:09:35.900Z,11.52
2018-09-09T04:10:35.939Z,11.52
2018-09-09T04:11:35.979Z,11.58
2018-09-09T04:12:36.020Z,11.58
2018-09-09T04:13:36.059Z,11.55
2018-09-09T04:14:36.097Z,11.49
2018-09-09T04:15:36.135Z,11.49
2018-09-09T04:16:36.174Z,11.51
2018-09-09T04:17:36.212Z,11.52
2018-09-09T04:18:36.253Z,11.55
2018-09-09T04:19:36.292Z,11.52
2018-09-09T04:20:36.331Z,11.47
2018-09-09T04:21:36.372Z,11.51
2018-09-09T04:22:36.409Z,11.52
2018-09-09T04:23:36.447Z,11.55
2018-09-09T04:24:36.488Z,11.49
2018-09-09T04:25:36.576Z,11.52
2018-09-09T04:26:36.564Z,11.51
2018-09-09T04:27:36.603Z,11.54
2018-09-09T04:28:36.642Z,11.49
2018-09-09T04:29:36.680Z,11.49
2018-09-09T04:30:36.720Z,11.51
2018-09-09T04:31:36.762Z,11.52
2018-09-09T04:32:36.851Z,11.47
2018-09-09T04:33:36.837Z,11.52
2018-09-09T04:34:36.876Z,11.51
2018-09-09T04:35:36.921Z,11.60
2018-09-09T04:36:36.955Z,11.62
2018-09-09T04:37:36.994Z,11.67
2018-09-09T04:38:37.084Z,11.64
2018-09-09T04:39:37.073Z,11.60
2018-09-09T04:40:37.115Z,11.62
2018-09-09T04:41:37.150Z,11.61
2018-09-09T04:42:37.190Z,11.64
2018-09-09T04:43:37.229Z,11.62
2018-09-09T04:44:37.277Z,11.61
2018-09-09T04:45:37.309Z,11.70
2018-09-09T04:46:37.352Z,11.65
2018-09-09T04:47:37.386Z,11.72
2018-09-09T04:48:37.427Z,11.70
2018-09-09T04:49:37.463Z,11.69
2018-09-09T04:50:37.504Z,11.82
2018-09-09T04:51:37.547Z,11.80
2018-09-09T04:52:37.585Z,11.76
2018-09-09T04:53:37.619Z,11.70
2018-09-09T04:54:37.663Z,11.72
2018-09-09T04:55:37.701Z,11.72
2018-09-09T04:56:37.737Z,11.69
2018-09-09T04:57:37.776Z,11.79
2018-09-09T04:58:37.817Z,11.75
2018-09-09T04:59:37.858Z,11.75
2018-09-09T05:00:37.895Z,11.75
2018-09-09T05:01:38.184Z,11.73
2018-09-09T05:02:37.978Z,11.76
2018-09-09T05:03:38.022Z,11.78
2018-09-09T05:04:38.056Z,11.76
2018-09-09T05:05:38.091Z,11.78
2018-09-09T05:06:38.130Z,11.73
2018-09-09T05:07:38.169Z,11.85
2018-09-09T05:08:38.210Z,11.76
2018-09-09T05:09:38.247Z,11.79
2018-09-09T05:10:38.288Z,11.76
2018-09-09T05:11:38.330Z,11.85
2018-09-09T05:12:38.365Z,11.83
2018-09-09T05:13:38.405Z,11.91
2018-09-09T05:14:38.444Z,11.96
2018-09-09T05:15:38.483Z,11.91
2018-09-09T05:16:38.524Z,11.94
2018-09-09T05:17:38.561Z,11.98
2018-09-09T05:18:38.604Z,11.90
2018-09-09T05:19:38.640Z,11.91
2018-09-09T05:20:38.680Z,12.04
2018-09-09T05:21:38.716Z,12.04
2018-09-09T05:22:38.757Z,12.05
2018-09-09T05:23:38.796Z,12.09
2018-09-09T05:24:38.834Z,12.12
2018-09-09T05:25:38.873Z,12.14
2018-09-09T05:26:38.913Z,12.14
2018-09-09T05:27:38.952Z,12.14
2018-09-09T05:28:38.993Z,12.16
2018-09-09T05:29:39.030Z,12.16
2018-09-09T05:30:39.076Z,12.17
2018-09-09T05:31:39.114Z,12.23
2018-09-09T05:32:39.153Z,12.24
2018-09-09T05:33:39.201Z,12.23
2018-09-09T05:34:39.228Z,12.28
2018-09-09T05:35:39.272Z,12.28
2018-09-09T05:36:39.306Z,12.29
2018-09-09T05:37:39.345Z,12.34
2018-09-09T05:38:39.385Z,12.29
2018-09-09T05:39:39.425Z,12.32
2018-09-09T05:40:39.464Z,12.45
2018-09-09T05:41:39.505Z,12.39
2018-09-09T05:42:39.542Z,12.38
2018-09-09T05:43:39.581Z,12.54
2018-09-09T05:44:39.718Z,12.52
2018-09-09T05:45:39.660Z,12.49
2018-09-09T05:46:39.701Z,12.62
2018-09-09T05:47:39.739Z,12.68
2018-09-09T05:48:39.781Z,12.74
2018-09-09T05:49:39.818Z,12.77
2018-09-09T05:50:39.858Z,12.79
2018-09-09T05:51:39.898Z,12.79
2018-09-09T05:52:39.947Z,12.83
2018-09-09T05:53:39.977Z,12.83
2018-09-09T05:54:40.016Z,12.97
2018-09-09T05:55:40.057Z,12.95
2018-09-09T05:56:40.094Z,13.00
2018-09-09T05:57:40.147Z,13.01
2018-09-09T05:58:40.174Z,13.03
2018-09-09T05:59:40.222Z,13.08
2018-09-09T06:00:40.253Z,13.20
2018-09-09T06:01:40.292Z,13.17
2018-09-09T06:02:40.382Z,13.14
2018-09-09T06:03:40.371Z,13.22
2018-09-09T06:04:40.411Z,13.30
2018-09-09T06:05:40.450Z,13.41
2018-09-09T06:06:40.492Z,13.42
2018-09-09T06:07:40.533Z,13.48
2018-09-09T06:08:40.570Z,13.62
2018-09-09T06:09:40.611Z,13.70
2018-09-09T06:10:40.656Z,13.69
2018-09-09T06:11:40.690Z,13.66
2018-09-09T06:12:40.734Z,13.71
2018-09-09T06:13:40.769Z,13.70
2018-09-09T06:14:40.811Z,13.71
2018-09-09T06:15:40.852Z,13.77
2018-09-09T06:16:41.047Z,13.70
2018-09-09T06:17:40.929Z,13.79
2018-09-09T06:18:40.985Z,13.79
2018-09-09T06:19:41.027Z,13.79
2018-09-09T06:20:41.050Z,13.78
2018-09-09T06:21:41.090Z,13.85
2018-09-09T06:22:41.129Z,13.70
2018-09-09T06:23:41.172Z,13.71
2018-09-09T06:24:41.210Z,13.67
2018-09-09T06:25:41.253Z,13.63
2018-09-09T06:26:41.290Z,13.71
2018-09-09T06:27:41.331Z,13.69
2018-09-09T06:28:41.372Z,13.79
2018-09-09T06:29:41.409Z,13.87
2018-09-09T06:30:41.449Z,13.95
2018-09-09T06:31:41.491Z,13.92
2018-09-09T06:32:41.531Z,14.10
2018-09-09T06:33:41.593Z,14.24
2018-09-09T06:34:41.608Z,14.18
2018-09-09T06:35:41.654Z,14.32
2018-09-09T06:36:41.729Z,14.24
2018-09-09T06:37:41.731Z,14.43
2018-09-09T06:38:41.771Z,14.52
2018-09-09T06:39:41.812Z,14.52
2018-09-09T06:40:41.853Z,14.52
2018-09-09T06:41:41.897Z,14.69
2018-09-09T06:42:41.932Z,14.75
2018-09-09T06:43:41.975Z,14.73
2018-09-09T06:44:42.012Z,14.86
2018-09-09T06:45:42.070Z,14.89
2018-09-09T06:46:42.102Z,15.02
2018-09-09T06:47:42.136Z,15.06
2018-09-09T06:48:42.184Z,15.13
2018-09-09T06:49:42.216Z,15.19
2018-09-09T06:50:42.256Z,15.27
2018-09-09T06:51:42.298Z,15.31
2018-09-09T06:52:42.341Z,15.34
2018-09-09T06:53:42.377Z,15.41
2018-09-09T06:54:42.415Z,15.39
2018-09-09T06:55:42.457Z,15.38
2018-09-09T06:56:42.499Z,15.43
2018-09-09T06:57:42.542Z,15.54
2018-09-09T06:58:42.580Z,15.60
2018-09-09T06:59:42.621Z,15.60
2018-09-09T07:00:42.667Z,15.68
2018-09-09T07:01:42.709Z,15.67
2018-09-09T07:02:42.746Z,15.82
2018-09-09T07:03:42.901Z,15.76
2018-09-09T07:04:42.825Z,15.87
2018-09-09T07:05:42.868Z,15.90
2018-09-09T07:06:42.921Z,15.93
2018-09-09T07:07:42.946Z,15.84
2018-09-09T07:08:42.986Z,15.84
2018-09-09T07:09:43.029Z,15.87
2018-09-09T07:10:43.135Z,15.86
2018-09-09T07:11:43.330Z,15.89
2018-09-09T07:12:43.158Z,15.90
2018-09-09T07:13:43.219Z,15.94
2018-09-09T07:14:43.232Z,16.00
2018-09-09T07:15:43.285Z,16.02
2018-09-09T07:16:43.314Z,15.94
2018-09-09T07:17:43.353Z,15.97
2018-09-09T07:18:43.445Z,15.96
2018-09-09T07:19:43.436Z,16.02
2018-09-09T07:20:43.486Z,15.94
2018-09-09T07:21:43.519Z,15.97
2018-09-09T07:22:43.636Z,16.05
2018-09-09T07:23:43.603Z,16.17
2018-09-09T07:24:43.642Z,16.14
2018-09-09T07:25:43.682Z,16.28
2018-09-09T07:26:43.725Z,16.35
2018-09-09T07:27:43.764Z,16.45
2018-09-09T07:28:43.805Z,16.48
2018-09-09T07:29:43.847Z,16.63
2018-09-09T07:30:43.890Z,16.75
2018-09-09T07:31:43.928Z,16.81
2018-09-09T07:32:43.969Z,16.86
2018-09-09T07:33:44.009Z,16.96
2018-09-09T07:34:44.050Z,16.91
2018-09-09T07:35:44.092Z,17.03
2018-09-09T07:36:44.138Z,17.08
2018-09-09T07:37:44.176Z,17.16
2018-09-09T07:38:44.219Z,17.18
2018-09-09T07:39:44.259Z,17.25
2018-09-09T07:40:44.300Z,17.33
2018-09-09T07:41:44.340Z,17.38
2018-09-09T07:42:44.384Z,17.41
2018-09-09T07:43:44.425Z,17.38
2018-09-09T07:44:44.477Z,17.37
2018-09-09T07:45:44.507Z,17.28
2018-09-09T07:46:44.549Z,17.34
2018-09-09T07:47:44.590Z,17.48
2018-09-09T07:48:44.632Z,17.49
2018-09-09T07:49:44.673Z,17.49
2018-09-09T07:50:44.748Z,17.48
2018-09-09T07:51:44.765Z,17.55
2018-09-09T07:52:44.798Z,17.56
2018-09-09T07:53:44.850Z,17.62
2018-09-09T07:54:44.880Z,17.68
2018-09-09T07:55:44.922Z,17.82
2018-09-09T07:56:44.963Z,17.86
2018-09-09T07:57:45.010Z,17.90
2018-09-09T07:58:45.049Z,17.92
2018-09-09T07:59:45.089Z,17.99
2018-09-09T08:00:45.128Z,18.02
2018-09-09T08:01:45.171Z,18.21
2018-09-09T08:02:45.212Z,18.14
2018-09-09T08:03:45.258Z,18.14
2018-09-09T08:04:45.297Z,18.14
2018-09-09T08:05:45.346Z,18.14
2018-09-09T08:06:45.382Z,18.17
2018-09-09T08:07:45.422Z,18.17
2018-09-09T08:08:45.462Z,17.99
2018-09-09T08:09:45.507Z,18.14
2018-09-09T08:10:45.548Z,18.15
2018-09-09T08:11:45.597Z,18.17
2018-09-09T08:12:45.629Z,18.14
2018-09-09T08:13:45.680Z,18.14
2018-09-09T08:14:45.719Z,18.15
2018-09-09T08:15:45.761Z,18.23
2018-09-09T08:16:45.800Z,18.20
2018-09-09T08:17:45.850Z,18.30
2018-09-09T08:18:45.929Z,18.29
2018-09-09T08:19:45.924Z,18.23
2018-09-09T08:20:45.967Z,18.23
2018-09-09T08:21:46.008Z,18.33
2018-09-09T08:22:46.048Z,18.25
2018-09-09T08:23:46.168Z,18.32
2018-09-09T08:24:46.136Z,18.44
2018-09-09T08:25:46.173Z,18.41
2018-09-09T08:26:46.224Z,18.52
2018-09-09T08:27:46.257Z,18.37
2018-09-09T08:28:46.301Z,18.41
2018-09-09T08:29:46.341Z,18.44
2018-09-09T08:30:46.384Z,18.47
2018-09-09T08:31:46.427Z,18.55
2018-09-09T08:32:46.475Z,18.63
2018-09-09T08:33:46.510Z,18.72
2018-09-09T08:34:46.590Z,18.73
2018-09-09T08:35:46.609Z,18.92
2018-09-09T08:36:46.642Z,18.94
2018-09-09T08:37:46.678Z,18.99
2018-09-09T08:38:46.722Z,19.10
2018-09-09T08:39:46.765Z,19.06
2018-09-09T08:40:46.805Z,19.07
2018-09-09T08:41:46.855Z,19.11
2018-09-09T08:42:46.889Z,19.14
2018-09-09T08:43:46.938Z,19.13
2018-09-09T08:44:46.976Z,19.29
2018-09-09T08:45:47.021Z,19.43
2018-09-09T08:46:47.059Z,19.40
2018-09-09T08:47:47.119Z,19.39
2018-09-09T08:48:47.145Z,19.32
2018-09-09T08:49:47.187Z,19.31
2018-09-09T08:50:47.231Z,19.31
2018-09-09T08:51:47.287Z,19.39
2018-09-09T08:52:47.320Z,19.46
2018-09-09T08:53:47.357Z,19.48
2018-09-09T08:54:47.405Z,19.44
2018-09-09T08:55:47.446Z,19.54
2018-09-09T08:56:47.483Z,19.76
2018-09-09T08:57:47.523Z,19.86
2018-09-09T08:58:47.566Z,20.03
2018-09-09T08:59:47.610Z,20.01
2018-09-09T09:00:47.652Z,20.02
2018-09-09T09:01:47.696Z,19.88
2018-09-09T09:02:47.739Z,19.96
2018-09-09T09:03:47.778Z,19.88
2018-09-09T09:04:47.827Z,20.05
2018-09-09T09:05:47.861Z,20.08
2018-09-09T09:06:47.910Z,20.26
2018-09-09T09:07:47.982Z,20.43
2018-09-09T09:08:48.006Z,20.58
2018-09-09T09:09:48.036Z,20.64
2018-09-09T09:10:48.075Z,20.61
2018-09-09T09:11:48.123Z,20.82
2018-09-09T09:12:48.167Z,20.91
2018-09-09T09:13:48.202Z,20.95
2018-09-09T09:14:48.375Z,21.17
2018-09-09T09:15:48.289Z,21.40
2018-09-09T09:16:48.332Z,21.54
2018-09-09T09:17:48.375Z,21.62
2018-09-09T09:18:48.431Z,21.65
2018-09-09T09:19:48.458Z,21.65
2018-09-09T09:20:48.503Z,21.64
2018-09-09T09:21:48.679Z,21.74
2018-09-09T09:22:48.596Z,21.82
2018-09-09T09:23:48.640Z,21.92
2018-09-09T09:24:48.673Z,21.92
2018-09-09T09:25:48.726Z,21.96
2018-09-09T09:26:48.759Z,22.02
2018-09-09T09:27:48.805Z,22.06
2018-09-09T09:28:48.851Z,22.00
2018-09-09T09:29:48.889Z,22.07
2018-09-09T09:30:49.034Z,22.21
2018-09-09T09:31:48.990Z,22.28
2018-09-09T09:32:49.027Z,22.20
2018-09-09T09:33:49.061Z,22.21
2018-09-09T09:34:49.109Z,22.35
2018-09-09T09:35:49.149Z,22.49
2018-09-09T09:36:49.195Z,22.45
2018-09-09T09:37:49.242Z,22.37
2018-09-09T09:38:49.277Z,22.36
2018-09-09T09:39:49.324Z,22.42
2018-09-09T09:40:49.367Z,22.43
2018-09-09T09:41:49.409Z,22.39
2018-09-09T09:42:49.452Z,22.52
2018-09-09T09:43:49.497Z,22.64
2018-09-09T09:44:49.580Z,22.57
2018-09-09T09:45:49.595Z,22.64
2018-09-09T09:46:49.626Z,22.70
2018-09-09T09:47:49.678Z,22.75
2018-09-09T09:48:49.725Z,22.75
2018-09-09T09:49:49.756Z,22.79
2018-09-09T09:50:49.801Z,22.94
2018-09-09T09:51:49.843Z,22.90
2018-09-09T09:52:49.889Z,22.92
2018-09-09T09:53:49.939Z,23.00
2018-09-09T09:54:49.976Z,22.94
2018-09-09T09:55:50.030Z,22.98
2018-09-09T09:56:50.073Z,23.00
2018-09-09T09:57:50.106Z,23.04
2018-09-09T09:58:50.151Z,22.86
2018-09-09T09:59:50.194Z,22.95
2018-09-09T10:00:50.237Z,23.09
2018-09-09T10:01:50.281Z,23.09
2018-09-09T10:02:50.325Z,23.25
2018-09-09T10:03:50.368Z,23.40
2018-09-09T10:04:50.415Z,23.36
2018-09-09T10:05:50.459Z,23.39
2018-09-09T10:06:50.500Z,23.27
2018-09-09T10:07:50.550Z,23.23
2018-09-09T10:08:50.599Z,23.40
2018-09-09T10:09:50.634Z,23.38
2018-09-09T10:10:50.675Z,23.50
2018-09-09T10:11:50.729Z,23.73
2018-09-09T10:12:50.782Z,23.76
2018-09-09T10:13:50.808Z,23.79
2018-09-09T10:14:50.851Z,23.88
2018-09-09T10:15:50.904Z,23.97
2018-09-09T10:16:50.940Z,24.12
2018-09-09T10:17:50.983Z,23.98
2018-09-09T10:18:51.027Z,23.88
2018-09-09T10:19:51.070Z,23.90
2018-09-09T10:20:51.115Z,24.00
2018-09-09T10:21:51.160Z,24.05
2018-09-09T10:22:51.202Z,24.22
2018-09-09T10:23:51.296Z,24.34
2018-09-09T10:24:51.297Z,24.49
2018-09-09T10:25:51.335Z,24.57
2018-09-09T10:26:51.380Z,24.78
2018-09-09T10:27:51.424Z,24.80
2018-09-09T10:28:51.476Z,24.76
2018-09-09T10:29:51.512Z,24.80
2018-09-09T10:30:51.564Z,24.80
2018-09-09T10:31:51.601Z,24.71
2018-09-09T10:32:51.646Z,24.49
2018-09-09T10:33:51.691Z,24.40
2018-09-09T10:34:51.750Z,24.25
2018-09-09T10:35:51.778Z,24.22
2018-09-09T10:36:51.841Z,24.39
2018-09-09T10:37:51.918Z,24.46
2018-09-09T10:38:51.914Z,24.69
2018-09-09T10:39:51.957Z,24.77
2018-09-09T10:40:52.057Z,24.52
2018-09-09T10:41:52.045Z,24.55
2018-09-09T10:42:52.093Z,24.43
2018-09-09T10:43:52.134Z,24.39
2018-09-09T10:44:52.185Z,24.47
2018-09-09T10:45:52.222Z,24.57
2018-09-09T10:46:52.410Z,24.73
2018-09-09T10:47:52.327Z,24.96
2018-09-09T10:48:52.364Z,25.17
2018-09-09T10:49:52.403Z,25.27
2018-09-09T10:50:52.445Z,25.54
2018-09-09T10:51:52.500Z,25.61
2018-09-09T10:52:52.534Z,25.69
2018-09-09T10:53:52.579Z,25.67
2018-09-09T10:54:52.633Z,25.72
2018-09-09T10:55:52.672Z,25.69
2018-09-09T10:56:52.730Z,25.69
2018-09-09T10:57:52.759Z,25.76
2018-09-09T10:58:52.840Z,25.72
2018-09-09T10:59:52.850Z,25.75
2018-09-09T11:00:52.897Z,25.51
2018-09-09T11:01:52.944Z,25.61
2018-09-09T11:02:52.985Z,25.67
2018-09-09T11:03:53.032Z,25.77
2018-09-09T11:04:53.083Z,25.64
2018-09-09T11:05:53.119Z,25.62
2018-09-09T11:06:53.229Z,25.62
2018-09-09T11:07:53.208Z,25.76
2018-09-09T11:08:53.263Z,25.82
2018-09-09T11:09:53.298Z,25.91
2018-09-09T11:10:53.346Z,25.92
2018-09-09T11:11:53.389Z,26.05
2018-09-09T11:12:53.475Z,25.95
2018-09-09T11:13:53.775Z,26.15
2018-09-09T11:14:53.527Z,26.25
2018-09-09T11:15:53.569Z,26.20
2018-09-09T11:16:53.616Z,25.99
2018-09-09T11:17:53.661Z,26.01
2018-09-09T11:18:53.722Z,26.10
2018-09-09T11:19:53.751Z,26.13
2018-09-09T11:20:53.804Z,26.13
2018-09-09T11:21:53.840Z,26.29
2018-09-09T11:22:53.889Z,26.26
2018-09-09T11:23:53.942Z,26.17
2018-09-09T11:24:54.204Z,26.09
2018-09-09T11:25:54.022Z,26.10
2018-09-09T11:26:54.074Z,26.18
2018-09-09T11:27:54.112Z,26.20
2018-09-09T11:28:54.166Z,26.06
2018-09-09T11:29:54.313Z,26.12
2018-09-09T11:30:54.261Z,26.21
2018-09-09T11:31:54.299Z,26.25
2018-09-09T11:32:54.338Z,26.20
2018-09-09T11:33:54.391Z,26.20
2018-09-09T11:34:54.467Z,26.12
2018-09-09T11:35:54.477Z,26.18
2018-09-09T11:36:54.524Z,26.12
2018-09-09T11:37:54.572Z,26.06
2018-09-09T11:38:54.626Z,25.98
2018-09-09T11:39:54.657Z,25.99
2018-09-09T11:40:54.733Z,25.98
2018-09-09T11:41:54.748Z,26.18
2018-09-09T11:42:54.804Z,26.15
2018-09-09T11:43:54.838Z,26.33
2018-09-09T11:44:54.884Z,26.39
2018-09-09T11:45:54.930Z,26.50
2018-09-09T11:46:54.974Z,26.44
2018-09-09T11:47:55.019Z,26.50
2018-09-09T11:48:55.077Z,26.60
2018-09-09T11:49:55.108Z,26.63
2018-09-09T11:50:55.155Z,26.67
2018-09-09T11:51:55.200Z,26.73
2018-09-09T11:52:55.247Z,26.73
2018-09-09T11:53:55.290Z,26.87
2018-09-09T11:54:55.337Z,26.94
2018-09-09T11:55:55.386Z,26.87
2018-09-09T11:56:55.435Z,26.70
2018-09-09T11:57:55.489Z,26.47
2018-09-09T11:58:55.521Z,26.51
2018-09-09T11:59:55.568Z,26.54
2018-09-09T12:00:55.610Z,26.35
2018-09-09T12:01:55.660Z,26.30
2018-09-09T12:02:55.702Z,26.45
2018-09-09T12:03:55.747Z,26.32
2018-09-09T12:04:55.797Z,26.18
2018-09-09T12:05:55.837Z,26.01
2018-09-09T12:06:55.895Z,26.10
2018-09-09T12:07:55.927Z,26.18
2018-09-09T12:08:55.975Z,26.15
2018-09-09T12:09:56.019Z,26.06
2018-09-09T12:10:56.070Z,26.18
2018-09-09T12:11:56.111Z,26.21
2018-09-09T12:12:56.157Z,26.26
2018-09-09T12:13:56.201Z,26.32
2018-09-09T12:14:56.267Z,26.51
2018-09-09T12:15:56.299Z,26.60
2018-09-09T12:16:56.337Z,26.67
2018-09-09T12:17:56.395Z,26.50
2018-09-09T12:18:56.427Z,26.45
2018-09-09T12:19:56.475Z,26.37
2018-09-09T12:20:56.520Z,26.32
2018-09-09T12:21:56.573Z,26.40
2018-09-09T12:22:56.617Z,26.51
2018-09-09T12:23:56.667Z,26.75
2018-09-09T12:24:56.714Z,26.85
2018-09-09T12:25:56.747Z,26.80
2018-09-09T12:26:56.792Z,26.91
2018-09-09T12:27:56.839Z,26.87
2018-09-09T12:28:56.891Z,26.92
2018-09-09T12:29:56.926Z,26.87
2018-09-09T12:30:56.973Z,27.09
2018-09-09T12:31:57.021Z,27.18
2018-09-09T12:32:57.065Z,27.18
2018-09-09T12:33:57.195Z,27.12
2018-09-09T12:34:57.159Z,27.18
2018-09-09T12:35:57.201Z,27.19
2018-09-09T12:36:57.259Z,27.17
2018-09-09T12:37:57.298Z,27.22
2018-09-09T12:38:57.434Z,27.18
2018-09-09T12:39:57.385Z,27.18
2018-09-09T12:40:57.432Z,27.09
2018-09-09T12:41:57.480Z,27.14
2018-09-09T12:42:57.520Z,27.12
2018-09-09T12:43:57.565Z,27.09
2018-09-09T12:44:57.623Z,26.91
2018-09-09T12:45:57.683Z,26.95
2018-09-09T12:46:57.777Z,27.00
2018-09-09T12:47:57.749Z,27.03
2018-09-09T12:48:57.797Z,27.13
2018-09-09T12:49:57.840Z,27.14
2018-09-09T12:50:57.888Z,27.10
2018-09-09T12:51:57.940Z,27.00
2018-09-09T12:52:57.995Z,27.04